Accueil
METAR-TAF:

METAR-TAF

Aéroports :

Aéroport international de Gibraltar

Gibraltar, Gibraltar

latitude: 36-09N, longitude: 005-21W, altitude: 5 m

Observation

Le bulletin a été fait il y a 41 minutes, à 22:50 UTC
Vent 7 kt de ouest
Température 15°C
Humidité 88%
Pression 1016 hPa
Visibilité 10 km ou plus

METAR: LXGB 292250Z AUTO 27007KT 9999 // FEW070/// OVC190/// 15/13 Q1016

Heure: 01:31 (23:31 UTC)

Prévision

Le bulletin a été fait il y a 10 heures et 37 minutes, à 12:54 UTC
Prévision valable du 29 à 15 UTC au 29 à 21 UTC
Vent 5 kt de est
Visibilité 10 km ou plus
Quelques nuages à une hauteur de 2000 ft

TAF: LXGB 291254Z 2915/2921 09005KT 9999 FEW020

Observations et prévisions météorologiques de plus de 4000 aéroports (messages METAR et TAF).

Les stations disponibles sont représentées par des disques jaunes et rouges sur la carte.

Passer la souris dessus pour voir le nom de la station.

Cliquer dessus pour voir les observations et prévisions météorologiques.

Pour changer de carte: cliquez sur les boutons verts avec une croix noire pour zoomer, sur le bouton vert avec un tiret pour effectuer un zoom arrière, ou sur les flèches vertes pour les cartes adjacentes.


METAR-TAF: